createdAt,value
2023-05-08T00:02:00.393Z,14.25
2023-05-08T00:04:27.563Z,13.32
2023-05-08T00:06:54.628Z,16.17
2023-05-08T00:09:21.797Z,13.85
2023-05-08T00:11:48.844Z,15.40
2023-05-08T00:14:15.874Z,14.45
2023-05-08T00:16:42.945Z,15.80
2023-05-08T00:19:10.092Z,15.68
2023-05-08T00:21:37.146Z,14.20
2023-05-08T00:24:04.309Z,15.65
2023-05-08T00:26:31.347Z,13.88
2023-05-08T00:28:58.424Z,15.38
2023-05-08T00:31:25.479Z,15.52
2023-05-08T00:33:52.560Z,14.00
2023-05-08T00:36:19.697Z,15.73
2023-05-08T00:38:47.115Z,15.82
2023-05-08T00:41:14.157Z,14.70
2023-05-08T00:43:41.215Z,15.23
2023-05-08T00:46:09.900Z,14.82
2023-05-08T00:48:37.121Z,14.45
2023-05-08T00:51:05.871Z,15.57
2023-05-08T00:53:34.218Z,14.25
2023-05-08T00:56:01.397Z,16.20
2023-05-08T00:58:28.688Z,17.00
2023-05-08T01:00:56.706Z,14.80
2023-05-08T01:03:24.548Z,15.90
2023-05-08T01:05:51.635Z,14.35
2023-05-08T01:08:18.643Z,15.63
2023-05-08T01:11:02.231Z,16.35
2023-05-08T01:13:47.781Z,15.98
2023-05-08T01:16:17.687Z,13.35
2023-05-08T01:18:51.741Z,14.10
2023-05-08T01:21:25.368Z,16.17
2023-05-08T01:24:11.171Z,14.55
2023-05-08T01:26:56.994Z,16.02
2023-05-08T01:29:41.259Z,15.45
2023-05-08T01:34:37.363Z,13.10
2023-05-08T01:37:04.400Z,12.75
2023-05-08T01:39:45.437Z,12.13
2023-05-08T01:42:24.880Z,13.80
2023-05-08T01:44:58.174Z,12.10
2023-05-08T01:47:27.631Z,11.95
2023-05-08T01:50:09.407Z,12.63
2023-05-08T01:52:43.276Z,14.00
2023-05-08T01:55:11.488Z,13.25
2023-05-08T01:57:40.787Z,13.30
2023-05-08T02:00:09.282Z,13.98
2023-05-08T02:02:36.831Z,13.18
2023-05-08T02:05:05.871Z,12.57
2023-05-08T02:07:35.098Z,15.68
2023-05-08T02:10:03.566Z,17.42
2023-05-08T02:12:32.173Z,17.73
2023-05-08T02:15:00.767Z,18.40
2023-05-08T02:17:28.381Z,20.45
2023-05-08T02:19:56.011Z,17.92
2023-05-08T02:22:24.092Z,17.65
2023-05-08T02:24:55.169Z,18.58
2023-05-08T02:27:23.304Z,18.00
2023-05-08T02:29:51.994Z,17.35
2023-05-08T02:32:20.783Z,17.02
2023-05-08T02:35:01.834Z,20.63
2023-05-08T02:37:29.565Z,17.73
2023-05-08T02:39:56.999Z,19.58
2023-05-08T02:42:24.019Z,18.20
2023-05-08T02:44:51.051Z,19.77
2023-05-08T02:47:22.674Z,17.02
2023-05-08T02:49:53.158Z,17.92
2023-05-08T02:52:23.338Z,19.17
2023-05-08T02:55:11.710Z,17.77
2023-05-08T02:57:47.203Z,19.65
2023-05-08T03:00:14.480Z,17.98
2023-05-08T03:02:43.102Z,16.45
2023-05-08T03:05:18.046Z,17.77
2023-05-08T03:07:47.902Z,16.90
2023-05-08T03:10:16.686Z,17.48
2023-05-08T03:12:46.154Z,16.48
2023-05-08T03:15:15.803Z,17.98
2023-05-08T03:17:44.251Z,18.02
2023-05-08T03:20:13.195Z,16.98
2023-05-08T03:22:41.481Z,18.85
2023-05-08T03:25:10.508Z,18.13
2023-05-08T03:27:38.085Z,18.85
2023-05-08T03:30:06.157Z,15.35
2023-05-08T03:32:33.884Z,15.85
2023-05-08T03:35:02.267Z,17.85
2023-05-08T03:37:29.226Z,16.40
2023-05-08T03:39:56.650Z,16.80
2023-05-08T03:42:27.266Z,15.88
2023-05-08T03:44:54.390Z,15.10
2023-05-08T03:47:21.963Z,17.40
2023-05-08T03:49:50.172Z,16.58
2023-05-08T03:52:16.948Z,18.13
2023-05-08T03:54:43.634Z,16.95
2023-05-08T03:57:10.534Z,17.17
2023-05-08T04:00:09.794Z,15.85
2023-05-08T04:03:09.886Z,17.00
2023-05-08T04:05:38.736Z,16.50
2023-05-08T04:08:08.547Z,16.50
2023-05-08T04:10:46.278Z,16.35
2023-05-08T04:13:16.015Z,16.38
2023-05-08T04:16:08.412Z,15.13
2023-05-08T04:18:38.355Z,15.40
2023-05-08T04:21:09.382Z,17.02
2023-05-08T04:23:37.079Z,15.45
2023-05-08T04:26:05.582Z,14.70
2023-05-08T04:28:34.370Z,16.20
2023-05-08T04:31:01.955Z,17.17
2023-05-08T04:33:29.333Z,15.15
2023-05-08T04:35:57.078Z,15.23
2023-05-08T04:38:24.188Z,14.98
2023-05-08T04:40:51.189Z,16.88
2023-05-08T04:43:18.212Z,16.38
2023-05-08T04:45:45.332Z,17.52
2023-05-08T04:48:12.480Z,15.13
2023-05-08T04:50:39.585Z,15.82
2023-05-08T04:53:06.589Z,16.67
2023-05-08T04:55:33.693Z,16.00
2023-05-08T04:58:00.817Z,16.13
2023-05-08T05:00:27.870Z,17.00
2023-05-08T05:02:54.919Z,16.73
2023-05-08T05:05:22.122Z,16.33
2023-05-08T05:07:48.813Z,16.88
2023-05-08T05:10:15.831Z,17.20
2023-05-08T05:12:42.601Z,16.20
2023-05-08T05:15:10.366Z,16.77
2023-05-08T05:17:37.235Z,15.50
2023-05-08T05:20:05.904Z,16.48
2023-05-08T05:22:33.166Z,20.67
2023-05-08T05:24:59.831Z,17.38
2023-05-08T05:27:26.536Z,14.23
2023-05-08T05:29:53.129Z,16.70
2023-05-08T05:32:20.883Z,15.25
2023-05-08T05:34:47.760Z,15.60
2023-05-08T05:37:14.378Z,15.82
2023-05-08T05:39:41.021Z,15.43
2023-05-08T05:42:07.666Z,18.15
2023-05-08T05:44:34.285Z,18.98
2023-05-08T05:47:00.947Z,15.30
2023-05-08T05:49:27.589Z,17.80
2023-05-08T05:51:54.217Z,16.50
2023-05-08T05:54:20.871Z,17.00
2023-05-08T05:56:48.242Z,16.70
2023-05-08T05:59:15.107Z,16.52
2023-05-08T06:01:42.448Z,17.23
2023-05-08T06:04:10.053Z,17.70
2023-05-08T06:06:37.236Z,17.60
2023-05-08T06:09:04.462Z,16.65
2023-05-08T06:11:31.614Z,17.90
2023-05-08T06:13:59.115Z,15.88
2023-05-08T06:16:26.313Z,16.20
2023-05-08T06:18:53.328Z,15.85
2023-05-08T06:21:20.501Z,16.92
2023-05-08T06:23:47.577Z,17.20
2023-05-08T06:26:14.619Z,17.77
2023-05-08T06:28:41.694Z,19.17
2023-05-08T06:31:08.849Z,15.65
2023-05-08T06:33:35.935Z,17.80
2023-05-08T06:36:04.542Z,17.92
2023-05-08T06:38:31.585Z,16.17
2023-05-08T06:40:58.739Z,17.38
2023-05-08T06:43:25.785Z,17.17
2023-05-08T06:45:53.124Z,17.05
2023-05-08T06:48:20.714Z,17.33
2023-05-08T06:50:48.151Z,17.63
2023-05-08T06:53:15.353Z,19.30
2023-05-08T06:55:43.702Z,16.83
2023-05-08T06:58:10.774Z,17.10
2023-05-08T07:00:37.878Z,22.15
2023-05-08T07:03:05.155Z,16.38
2023-05-08T07:05:32.469Z,15.18
2023-05-08T07:07:59.519Z,15.98
2023-05-08T07:10:26.608Z,15.57
2023-05-08T07:12:54.431Z,19.70
2023-05-08T07:15:26.519Z,17.65
2023-05-08T07:17:54.413Z,17.95
2023-05-08T07:20:21.847Z,17.48
2023-05-08T07:22:49.142Z,16.92
2023-05-08T07:25:16.862Z,14.93
2023-05-08T07:27:44.017Z,17.23
2023-05-08T07:30:11.215Z,17.45
2023-05-08T07:32:41.320Z,15.77
2023-05-08T07:35:11.110Z,15.38
2023-05-08T07:37:38.820Z,15.90
2023-05-08T07:40:06.176Z,17.52
2023-05-08T07:42:38.603Z,14.95
2023-05-08T07:45:05.879Z,15.98
2023-05-08T07:47:33.039Z,15.35
2023-05-08T07:50:00.198Z,19.27
2023-05-08T07:52:27.452Z,14.68
2023-05-08T07:54:54.629Z,18.30
2023-05-08T07:57:21.717Z,15.52
2023-05-08T07:59:48.763Z,14.77
2023-05-08T08:02:16.135Z,16.95
2023-05-08T08:04:43.277Z,16.25
2023-05-08T08:07:10.332Z,16.65
2023-05-08T08:09:37.411Z,15.48
2023-05-08T08:12:04.597Z,16.20
2023-05-08T08:14:31.796Z,15.65
2023-05-08T08:16:59.469Z,13.55
2023-05-08T08:19:26.318Z,16.67
2023-05-08T08:21:52.925Z,14.70
2023-05-08T08:24:19.672Z,16.50
2023-05-08T08:26:46.366Z,16.00
2023-05-08T08:29:13.019Z,15.38
2023-05-08T08:31:39.816Z,16.70
2023-05-08T08:34:06.538Z,15.57
2023-05-08T08:36:33.332Z,16.20
2023-05-08T08:39:00.738Z,15.50
2023-05-08T08:41:28.140Z,15.32
2023-05-08T08:43:58.312Z,17.30
2023-05-08T08:46:26.349Z,14.95
2023-05-08T08:48:56.933Z,16.50
2023-05-08T08:51:33.749Z,16.65
2023-05-08T08:54:13.325Z,15.93
2023-05-08T08:56:44.858Z,18.40
2023-05-08T08:59:13.204Z,16.40
2023-05-08T09:01:41.392Z,18.27
2023-05-08T09:04:09.069Z,15.27
2023-05-08T09:06:37.013Z,15.50
2023-05-08T09:09:04.739Z,15.80
2023-05-08T09:11:31.449Z,18.15
2023-05-08T09:13:58.467Z,19.30
2023-05-08T09:16:25.700Z,15.38
2023-05-08T09:18:52.367Z,15.20
2023-05-08T09:21:19.468Z,16.20
2023-05-08T09:24:03.542Z,15.35
2023-05-08T09:26:35.217Z,17.60
2023-05-08T09:29:12.715Z,17.90
2023-05-08T09:31:42.428Z,18.42
2023-05-08T09:34:11.163Z,16.70
2023-05-08T09:36:40.622Z,16.02
2023-05-08T09:39:12.543Z,18.65
2023-05-08T09:41:39.460Z,17.00
2023-05-08T09:44:07.242Z,17.23
2023-05-08T09:46:34.550Z,18.17
2023-05-08T09:49:02.891Z,18.80
2023-05-08T09:51:31.161Z,17.48
2023-05-08T09:53:59.395Z,18.00
2023-05-08T09:56:36.801Z,19.00
2023-05-08T09:59:05.037Z,19.05
2023-05-08T10:01:36.164Z,16.65
2023-05-08T10:04:05.699Z,18.08
2023-05-08T10:06:33.336Z,18.90
2023-05-08T10:09:13.466Z,18.58
2023-05-08T10:11:52.560Z,20.27
2023-05-08T10:14:20.430Z,17.85
2023-05-08T10:16:54.383Z,19.40
2023-05-08T10:19:22.760Z,18.85
2023-05-08T10:21:50.936Z,18.45
2023-05-08T10:24:19.057Z,18.33
2023-05-08T10:27:05.704Z,19.42
2023-05-08T10:29:39.945Z,19.35
2023-05-08T10:32:10.052Z,19.92
2023-05-08T10:34:39.510Z,17.70
2023-05-08T10:37:08.384Z,19.67
2023-05-08T10:39:35.635Z,19.23
2023-05-08T10:42:03.192Z,18.08
2023-05-08T10:44:30.560Z,20.42
2023-05-08T10:46:57.669Z,18.52
2023-05-08T10:49:43.813Z,18.33
2023-05-08T10:52:23.654Z,18.25
2023-05-08T10:55:04.657Z,18.88
2023-05-08T10:57:32.074Z,20.90
2023-05-08T10:59:59.169Z,19.05
2023-05-08T11:02:30.214Z,20.05
2023-05-08T11:05:16.664Z,20.88
2023-05-08T11:08:01.342Z,19.15
2023-05-08T11:10:32.191Z,21.00
2023-05-08T11:12:59.602Z,21.13
2023-05-08T11:15:36.473Z,20.10
2023-05-08T11:18:07.415Z,20.95
2023-05-08T11:20:57.425Z,19.77
2023-05-08T11:23:27.942Z,18.48
2023-05-08T11:26:00.443Z,18.73
2023-05-08T11:28:27.641Z,18.35
2023-05-08T11:30:56.335Z,21.80
2023-05-08T11:33:23.879Z,20.40
2023-05-08T11:35:57.980Z,19.65
2023-05-08T11:38:36.268Z,19.25
2023-05-08T11:41:07.601Z,20.30
2023-05-08T11:43:37.561Z,20.83
2023-05-08T11:46:05.688Z,20.92
2023-05-08T11:48:33.449Z,19.52
2023-05-08T11:51:00.672Z,20.80
2023-05-08T11:53:27.989Z,18.33
2023-05-08T11:55:55.460Z,19.17
2023-05-08T11:58:22.607Z,19.95
2023-05-08T12:00:50.171Z,18.30
2023-05-08T12:03:18.470Z,19.40
2023-05-08T12:05:46.118Z,18.40
2023-05-08T12:08:13.980Z,19.33
2023-05-08T12:10:47.040Z,17.85
2023-05-08T12:13:18.889Z,18.10
2023-05-08T12:15:46.887Z,17.88
2023-05-08T12:18:14.245Z,18.67
2023-05-08T12:20:41.382Z,18.75
2023-05-08T12:23:10.180Z,19.70
2023-05-08T12:25:40.480Z,18.63
2023-05-08T12:28:08.138Z,18.15
2023-05-08T12:30:35.280Z,21.83
2023-05-08T12:33:02.934Z,18.75
2023-05-08T12:35:30.224Z,18.23
2023-05-08T12:38:03.926Z,17.95
2023-05-08T12:40:32.222Z,17.80
2023-05-08T12:43:02.673Z,18.30
2023-05-08T12:45:33.776Z,18.45
2023-05-08T12:48:02.026Z,17.90
2023-05-08T12:50:30.628Z,16.83
2023-05-08T12:53:18.043Z,18.20
2023-05-08T12:55:55.821Z,16.83
2023-05-08T12:58:26.828Z,17.88
2023-05-08T13:00:54.850Z,20.45
2023-05-08T13:03:26.309Z,17.67
2023-05-08T13:05:54.094Z,18.40
2023-05-08T13:08:21.326Z,19.00
2023-05-08T13:10:48.368Z,18.13
2023-05-08T13:13:16.314Z,19.25
2023-05-08T13:15:43.845Z,19.08
2023-05-08T13:18:11.221Z,19.23
2023-05-08T13:20:38.797Z,18.25
2023-05-08T13:23:06.283Z,19.70
2023-05-08T13:25:33.594Z,19.25
2023-05-08T13:28:00.787Z,18.70
2023-05-08T13:30:27.965Z,18.70
2023-05-08T13:32:55.409Z,19.70
2023-05-08T13:35:23.033Z,19.48
2023-05-08T13:37:50.812Z,19.58
2023-05-08T13:40:18.337Z,21.33
2023-05-08T13:42:45.382Z,19.60
2023-05-08T13:45:16.321Z,20.23
2023-05-08T13:47:43.721Z,21.48
2023-05-08T13:50:11.229Z,21.52
2023-05-08T13:52:38.919Z,20.45
2023-05-08T13:55:07.129Z,22.95
2023-05-08T13:57:34.423Z,20.77
2023-05-08T14:00:01.524Z,20.05
2023-05-08T14:02:28.949Z,21.60
2023-05-08T14:04:56.125Z,22.00
2023-05-08T14:07:23.250Z,19.52
2023-05-08T14:09:50.594Z,21.23
2023-05-08T14:12:17.758Z,18.50
2023-05-08T14:14:44.983Z,19.25
2023-05-08T14:17:12.125Z,19.35
2023-05-08T14:19:39.251Z,20.73
2023-05-08T14:22:06.937Z,18.55
2023-05-08T14:24:34.014Z,17.45
2023-05-08T14:27:05.573Z,17.17
2023-05-08T14:29:35.732Z,18.08
2023-05-08T14:32:03.984Z,18.02
2023-05-08T14:34:31.128Z,17.15
2023-05-08T14:36:58.171Z,17.75
2023-05-08T14:39:25.286Z,14.88
2023-05-08T14:42:14.233Z,16.38
2023-05-08T14:44:39.908Z,15.75
2023-05-08T14:47:07.015Z,15.90
2023-05-08T14:52:04.232Z,16.30
2023-05-08T14:54:31.575Z,17.50
2023-05-08T14:56:58.742Z,16.02
2023-05-08T14:59:25.626Z,18.60
2023-05-08T15:01:52.409Z,16.58
2023-05-08T15:04:19.254Z,18.83
2023-05-08T15:06:46.110Z,18.77
2023-05-08T15:09:12.787Z,18.10
2023-05-08T15:11:39.843Z,19.45
2023-05-08T15:14:06.541Z,20.52
2023-05-08T15:16:33.299Z,16.60
2023-05-08T15:19:00.095Z,17.80
2023-05-08T15:21:27.577Z,18.35
2023-05-08T15:23:57.683Z,17.38
2023-05-08T15:26:24.313Z,19.48
2023-05-08T15:28:51.169Z,21.13
2023-05-08T15:31:18.552Z,19.48
2023-05-08T15:33:47.645Z,19.73
2023-05-08T15:36:15.230Z,19.88
2023-05-08T15:38:42.320Z,20.05
2023-05-08T15:41:15.213Z,23.30
2023-05-08T15:43:43.242Z,20.15
2023-05-08T15:46:10.789Z,19.88
2023-05-08T15:48:37.927Z,21.92
2023-05-08T15:51:04.959Z,19.13
2023-05-08T15:53:33.729Z,17.95
2023-05-08T15:56:00.794Z,20.58
2023-05-08T15:58:27.847Z,20.35
2023-05-08T16:00:54.825Z,19.70
2023-05-08T16:03:21.707Z,18.08
2023-05-08T16:05:48.700Z,17.65
2023-05-08T16:08:15.481Z,17.60
2023-05-08T16:10:42.263Z,16.70
2023-05-08T16:13:09.228Z,16.35
2023-05-08T16:15:36.048Z,17.10
2023-05-08T16:18:03.122Z,19.50
2023-05-08T16:20:30.523Z,17.75
2023-05-08T16:22:57.935Z,20.02
2023-05-08T16:25:25.468Z,18.52
2023-05-08T16:27:52.287Z,20.67
2023-05-08T16:30:19.073Z,22.38
2023-05-08T16:32:46.058Z,19.25
2023-05-08T16:35:13.153Z,19.52
2023-05-08T16:37:40.341Z,19.33
2023-05-08T16:40:08.169Z,21.27
2023-05-08T16:42:35.008Z,20.90
2023-05-08T16:45:02.089Z,18.20
2023-05-08T16:47:28.721Z,19.50
2023-05-08T16:49:55.844Z,19.70
2023-05-08T16:52:22.604Z,20.60
2023-05-08T16:54:49.307Z,18.88
2023-05-08T16:57:15.939Z,21.13
2023-05-08T16:59:42.663Z,18.77
2023-05-08T17:02:09.389Z,20.30
2023-05-08T17:04:36.323Z,20.40
2023-05-08T17:07:04.996Z,19.92
2023-05-08T17:09:33.092Z,18.50
2023-05-08T17:12:01.818Z,19.65
2023-05-08T17:14:28.533Z,18.63
2023-05-08T17:16:55.357Z,19.63
2023-05-08T17:19:22.117Z,21.23
2023-05-08T17:21:48.801Z,20.13
2023-05-08T17:24:15.450Z,19.63
2023-05-08T17:26:42.212Z,18.85
2023-05-08T17:29:08.888Z,19.38
2023-05-08T17:31:35.554Z,18.52
2023-05-08T17:34:02.245Z,18.17
2023-05-08T17:36:28.953Z,19.83
2023-05-08T17:38:55.787Z,19.63
2023-05-08T17:41:22.687Z,20.33
2023-05-08T17:43:49.291Z,19.45
2023-05-08T17:46:16.098Z,19.83
2023-05-08T17:48:42.813Z,19.85
2023-05-08T17:51:13.213Z,19.48
2023-05-08T17:53:40.395Z,18.92
2023-05-08T17:56:07.471Z,17.55
2023-05-08T17:58:34.117Z,20.08
2023-05-08T18:01:00.842Z,18.63
2023-05-08T18:03:27.517Z,20.33
2023-05-08T18:05:54.229Z,19.55
2023-05-08T18:08:20.962Z,18.23
2023-05-08T18:10:47.582Z,18.77
2023-05-08T18:13:14.222Z,19.35
2023-05-08T18:15:41.138Z,21.52
2023-05-08T18:18:08.130Z,19.17
2023-05-08T18:20:35.041Z,19.00
2023-05-08T18:23:01.849Z,20.92
2023-05-08T18:25:28.707Z,20.38
2023-05-08T18:27:55.354Z,19.30
2023-05-08T18:30:22.006Z,19.20
2023-05-08T18:32:48.733Z,21.95
2023-05-08T18:35:15.598Z,21.77
2023-05-08T18:37:42.202Z,20.27
2023-05-08T18:40:09.353Z,21.17
2023-05-08T18:42:36.208Z,21.92
2023-05-08T18:45:05.860Z,20.67
2023-05-08T18:47:32.945Z,22.38
2023-05-08T18:50:00.373Z,20.67
2023-05-08T18:52:27.337Z,21.20
2023-05-08T18:54:53.992Z,20.52
2023-05-08T18:57:20.744Z,20.35
2023-05-08T18:59:47.357Z,21.58
2023-05-08T19:02:14.443Z,22.92
2023-05-08T19:04:41.235Z,22.15
2023-05-08T19:07:07.928Z,23.50
2023-05-08T19:09:35.009Z,22.27
2023-05-08T19:12:01.852Z,19.48
2023-05-08T19:14:28.451Z,23.15
2023-05-08T19:16:57.723Z,21.80
2023-05-08T19:19:25.501Z,21.35
2023-05-08T19:21:52.520Z,23.17
2023-05-08T19:24:20.870Z,20.88
2023-05-08T19:26:48.079Z,20.92
2023-05-08T19:29:15.190Z,21.15
2023-05-08T19:31:42.309Z,21.00
2023-05-08T19:34:09.360Z,20.67
2023-05-08T19:36:37.786Z,19.60
2023-05-08T19:39:05.138Z,19.30
2023-05-08T19:41:31.747Z,20.20
2023-05-08T19:43:58.378Z,20.77
2023-05-08T19:46:25.152Z,21.60
2023-05-08T19:48:51.997Z,19.02
2023-05-08T19:51:18.672Z,19.00
2023-05-08T19:53:45.452Z,19.88
2023-05-08T19:56:12.188Z,20.23
2023-05-08T19:58:38.762Z,20.75
2023-05-08T20:01:05.477Z,20.58
2023-05-08T20:03:32.627Z,20.75
2023-05-08T20:05:59.780Z,20.23
2023-05-08T20:08:26.862Z,20.95
2023-05-08T20:10:54.021Z,21.38
2023-05-08T20:13:21.624Z,20.63
2023-05-08T20:15:48.789Z,18.35
2023-05-08T20:18:16.015Z,21.60
2023-05-08T20:20:45.000Z,20.83
2023-05-08T20:23:12.259Z,21.73
2023-05-08T20:25:39.384Z,21.00
2023-05-08T20:28:06.471Z,20.90
2023-05-08T20:30:33.507Z,21.65
2023-05-08T20:33:04.567Z,20.48
2023-05-08T20:35:32.828Z,23.95
2023-05-08T20:37:59.901Z,21.85
2023-05-08T20:40:26.980Z,21.58
2023-05-08T20:42:54.041Z,22.35
2023-05-08T20:45:21.264Z,23.45
2023-05-08T20:47:47.970Z,22.75
2023-05-08T20:50:16.088Z,24.63
2023-05-08T20:52:43.059Z,24.30
2023-05-08T20:55:09.958Z,24.25
2023-05-08T20:57:36.709Z,24.98
2023-05-08T21:00:04.011Z,22.77
2023-05-08T21:02:30.643Z,22.00
2023-05-08T21:04:57.329Z,24.50
2023-05-08T21:07:23.992Z,24.38
2023-05-08T21:09:50.634Z,27.38
2023-05-08T21:12:17.296Z,23.88
2023-05-08T21:14:43.953Z,26.65
2023-05-08T21:17:10.694Z,25.13
2023-05-08T21:19:38.011Z,27.88
2023-05-08T21:22:05.222Z,25.13
2023-05-08T21:24:32.242Z,24.42
2023-05-08T21:27:00.402Z,23.13
2023-05-08T21:29:27.534Z,27.10
2023-05-08T21:31:54.731Z,25.98
2023-05-08T21:34:21.823Z,25.45
2023-05-08T21:36:49.094Z,26.65
2023-05-08T21:39:16.109Z,23.98
2023-05-08T21:41:43.546Z,25.48
2023-05-08T21:44:12.745Z,24.48
2023-05-08T21:46:40.244Z,23.02
2023-05-08T21:49:07.324Z,24.77
2023-05-08T21:51:34.437Z,26.17
2023-05-08T21:54:01.420Z,22.80
2023-05-08T21:56:28.417Z,20.90
2023-05-08T21:58:55.676Z,21.00
2023-05-08T22:01:22.775Z,22.55
2023-05-08T22:03:49.507Z,20.92
2023-05-08T22:06:16.611Z,23.98
2023-05-08T22:08:43.239Z,21.98
2023-05-08T22:11:09.864Z,21.92
2023-05-08T22:13:36.982Z,19.58
2023-05-08T22:16:04.200Z,21.38
2023-05-08T22:18:31.305Z,21.70
2023-05-08T22:20:58.460Z,21.63
2023-05-08T22:23:25.459Z,21.95
2023-05-08T22:25:52.550Z,19.88
2023-05-08T22:28:19.678Z,19.65
2023-05-08T22:30:46.804Z,20.77
2023-05-08T22:33:13.916Z,18.52
2023-05-08T22:35:40.981Z,21.02
2023-05-08T22:38:08.035Z,20.13
2023-05-08T22:40:35.283Z,19.52
2023-05-08T22:43:02.459Z,17.75
2023-05-08T22:45:29.637Z,19.48
2023-05-08T22:47:56.905Z,20.35
2023-05-08T22:50:24.098Z,23.00
2023-05-08T22:52:51.210Z,19.83
2023-05-08T22:55:18.458Z,23.27
2023-05-08T22:57:45.722Z,19.58
2023-05-08T23:00:13.078Z,18.23
2023-05-08T23:02:40.205Z,19.02
2023-05-08T23:05:07.685Z,21.13
2023-05-08T23:07:34.290Z,18.25
2023-05-08T23:10:00.906Z,18.48
2023-05-08T23:12:27.548Z,20.10
2023-05-08T23:14:54.164Z,19.45
2023-05-08T23:17:20.749Z,17.58
2023-05-08T23:19:47.376Z,18.60
2023-05-08T23:22:14.046Z,17.48
2023-05-08T23:24:40.714Z,18.90
2023-05-08T23:27:07.315Z,20.35
2023-05-08T23:29:33.933Z,17.83
2023-05-08T23:32:00.573Z,18.85
2023-05-08T23:34:27.216Z,16.27
2023-05-08T23:36:53.856Z,18.52
2023-05-08T23:39:20.931Z,18.02
2023-05-08T23:41:47.999Z,21.85
2023-05-08T23:44:15.431Z,17.55
2023-05-08T23:46:42.646Z,18.60
2023-05-08T23:49:09.725Z,19.92
2023-05-08T23:51:36.750Z,17.98
2023-05-08T23:54:04.440Z,19.00
2023-05-08T23:56:31.447Z,20.35
2023-05-08T23:58:58.499Z,17.98
